Time;durP1;ratioP1;P1;durP2;ratioP2;P2;SDS_P1;SDS_P2;PMS_P1;PMS_P2;Temp;Humidity;BMP_temperature;BMP_pressure;BME280_temperature;BME280_humidity;BME280_pressure;Samples;Min_cycle;Max_cycle;Signal;HPM_P1;HPM_P2
2022/04/09 00:01:14;;;;;;;21.10;1.98;;;38.30;11.30;;;;;;4973696;28;20391;-61
2022/04/09 00:03:40;;;;;;;2.80;1.02;;;38.30;10.50;;;;;;4972844;28;20084;-62
2022/04/09 00:06:07;;;;;;;5.65;1.00;;;38.20;10.00;;;;;;4980989;28;20042;-61
2022/04/09 00:08:33;;;;;;;4.30;0.70;;;38.00;10.30;;;;;;4988826;28;20368;-65
2022/04/09 00:10:59;;;;;;;8.63;0.90;;;37.90;10.40;;;;;;4991245;28;20088;-62
2022/04/09 00:13:26;;;;;;;7.10;1.33;;;37.90;10.60;;;;;;4972719;28;20033;-62
2022/04/09 00:15:52;;;;;;;7.43;0.95;;;38.00;11.10;;;;;;4985920;28;20045;-62
2022/04/09 00:18:19;;;;;;;10.32;1.02;;;37.80;11.60;;;;;;4989512;28;20169;-62
2022/04/09 00:20:45;;;;;;;6.32;1.30;;;37.70;11.30;;;;;;4988985;28;20018;-62
2022/04/09 00:23:13;;;;;;;4.85;0.93;;;37.70;11.10;;;;;;4989311;28;20030;-62
2022/04/09 00:25:39;;;;;;;6.60;1.15;;;37.70;11.00;;;;;;4991552;28;20045;-64
2022/04/09 00:28:05;;;;;;;11.90;1.98;;;37.70;11.10;;;;;;4989010;28;20022;-64
2022/04/09 00:30:32;;;;;;;7.53;1.33;;;37.70;11.20;;;;;;4988339;28;20023;-61
2022/04/09 00:32:59;;;;;;;5.10;1.00;;;37.80;11.20;;;;;;4990300;28;20110;-61
2022/04/09 00:35:25;;;;;;;4.00;1.25;;;38.20;11.20;;;;;;4985997;28;20382;-63
2022/04/09 00:37:52;;;;;;;8.32;1.05;;;38.30;10.80;;;;;;4987827;28;20031;-62
2022/04/09 00:40:18;;;;;;;5.50;1.27;;;38.10;11.00;;;;;;4971368;28;20022;-62
2022/04/09 00:42:46;;;;;;;4.68;1.10;;;38.00;11.20;;;;;;4970758;28;20050;-61
2022/04/09 00:45:13;;;;;;;5.68;1.00;;;37.90;11.20;;;;;;4988891;28;20482;-63
2022/04/09 00:47:40;;;;;;;4.55;1.10;;;37.70;11.70;;;;;;4989357;28;20560;-63
2022/04/09 00:50:08;;;;;;;9.15;1.15;;;37.60;11.30;;;;;;4988699;28;20125;-62
2022/04/09 00:52:38;;;;;;;8.23;1.27;;;37.30;11.40;;;;;;4988762;28;20137;-61
2022/04/09 00:55:09;;;;;;;5.68;1.20;;;37.10;12.10;;;;;;5022035;28;20067;-62
2022/04/09 00:57:36;;;;;;;3.92;1.48;;;37.00;11.40;;;;;;5021108;28;20029;-62
2022/04/09 01:00:09;;;;;;;8.85;1.52;;;36.80;11.30;;;;;;4989215;28;20037;-63
2022/04/09 01:02:43;;;;;;;3.65;1.05;;;36.70;11.30;;;;;;4988739;28;20127;-62
2022/04/09 01:05:11;;;;;;;7.47;1.30;;;36.60;11.40;;;;;;4988273;28;20086;-62
2022/04/09 01:07:38;;;;;;;6.38;1.00;;;36.70;11.30;;;;;;4955465;28;20037;-62
2022/04/09 01:10:08;;;;;;;6.82;1.30;;;36.60;11.30;;;;;;4972900;28;20053;-62
2022/04/09 01:12:36;;;;;;;8.80;1.25;;;36.50;11.30;;;;;;4972292;28;20414;-64
2022/04/09 01:15:04;;;;;;;4.93;1.05;;;36.50;11.30;;;;;;4972594;28;20037;-61
2022/04/09 01:17:31;;;;;;;6.22;1.13;;;36.40;11.30;;;;;;4989110;28;20061;-62
2022/04/09 01:19:57;;;;;;;4.68;1.17;;;36.40;11.80;;;;;;4973038;28;20133;-62
2022/04/09 01:22:23;;;;;;;8.00;1.20;;;36.30;11.00;;;;;;4971616;28;20061;-63
2022/04/09 01:24:50;;;;;;;4.20;1.17;;;36.10;12.10;;;;;;4973101;28;20053;-64
2022/04/09 01:27:16;;;;;;;4.07;0.90;;;35.90;12.70;;;;;;4972394;28;20056;-64
2022/04/09 01:29:43;;;;;;;6.18;1.10;;;35.60;12.40;;;;;;4971270;28;20040;-63
2022/04/09 01:32:11;;;;;;;9.23;1.63;;;35.50;11.90;;;;;;4972232;28;20190;-62
2022/04/09 01:34:39;;;;;;;7.55;1.55;;;35.30;12.00;;;;;;4989610;28;20089;-65
2022/04/09 01:37:06;;;;;;;10.43;1.80;;;35.10;12.20;;;;;;4971196;28;20066;-61
2022/04/09 01:39:32;;;;;;;9.20;1.60;;;34.90;12.50;;;;;;4955234;28;20042;-65
2022/04/09 01:41:58;;;;;;;13.07;1.65;;;34.80;12.60;;;;;;4971709;28;20678;-65
2022/04/09 01:44:25;;;;;;;7.43;2.03;;;34.60;12.70;;;;;;4971244;28;20058;-63
2022/04/09 01:46:51;;;;;;;8.52;1.77;;;34.40;13.20;;;;;;4972498;28;20046;-63
2022/04/09 01:49:17;;;;;;;5.20;1.63;;;34.30;13.20;;;;;;4972578;28;20054;-66
2022/04/09 01:51:49;;;;;;;14.45;2.42;;;34.20;13.40;;;;;;4989371;28;20081;-63
2022/04/09 01:54:15;;;;;;;10.27;2.45;;;34.10;13.40;;;;;;4972569;28;20050;-63
2022/04/09 01:56:42;;;;;;;6.38;2.40;;;33.90;13.80;;;;;;4972560;28;20539;-62
2022/04/09 01:59:08;;;;;;;9.75;2.80;;;33.80;13.40;;;;;;4972480;28;20054;-63
2022/04/09 02:01:34;;;;;;;13.38;2.38;;;33.70;14.00;;;;;;4971614;28;20052;-64
2022/04/09 02:04:01;;;;;;;13.30;2.97;;;33.50;14.10;;;;;;4972353;28;20153;-61
2022/04/09 02:06:28;;;;;;;17.10;3.70;;;33.40;14.50;;;;;;4972349;28;20103;-62
2022/04/09 02:08:55;;;;;;;9.48;3.50;;;33.20;14.10;;;;;;4968573;28;20461;-61
2022/04/09 02:11:23;;;;;;;10.25;4.35;;;33.10;14.30;;;;;;4970872;28;20071;-63
2022/04/09 02:13:51;;;;;;;20.25;4.60;;;33.00;14.30;;;;;;4971034;28;20431;-64
2022/04/09 02:16:18;;;;;;;13.60;5.07;;;32.90;14.40;;;;;;4972237;28;20481;-64
2022/04/09 02:18:44;;;;;;;17.08;5.07;;;32.70;14.80;;;;;;4973297;28;20091;-63
2022/04/09 02:21:10;;;;;;;20.35;5.32;;;32.60;15.50;;;;;;4957572;28;20054;-64
2022/04/09 02:23:37;;;;;;;21.73;5.68;;;32.30;16.10;;;;;;4974734;28;20058;-62
2022/04/09 02:26:04;;;;;;;24.00;5.20;;;32.20;15.80;;;;;;4993702;28;20086;-62
2022/04/09 02:28:32;;;;;;;19.88;4.80;;;32.00;15.90;;;;;;4974246;28;20775;-65
2022/04/09 02:30:58;;;;;;;23.67;4.88;;;31.80;16.20;;;;;;4974948;28;20068;-64
2022/04/09 02:33:25;;;;;;;34.70;4.90;;;31.70;16.90;;;;;;4975474;28;20101;-61
2022/04/09 02:35:51;;;;;;;21.60;5.32;;;31.50;17.40;;;;;;4959373;28;20070;-61
2022/04/09 02:38:17;;;;;;;26.67;4.47;;;31.40;17.10;;;;;;4974183;28;20107;-62
2022/04/09 02:40:44;;;;;;;22.25;4.05;;;31.20;17.40;;;;;;4991950;28;20110;-62
2022/04/09 02:43:10;;;;;;;25.55;4.13;;;31.10;17.90;;;;;;4972621;28;20130;-60
2022/04/09 02:45:37;;;;;;;22.52;3.80;;;31.00;18.10;;;;;;4974731;28;20086;-63
2022/04/09 02:48:04;;;;;;;27.00;3.83;;;30.80;18.20;;;;;;4974037;28;20063;-63
2022/04/09 02:50:30;;;;;;;32.85;4.32;;;30.70;18.50;;;;;;4974083;28;20077;-61
2022/04/09 02:52:57;;;;;;;31.38;3.40;;;30.50;18.40;;;;;;4973087;28;20218;-61
2022/04/09 02:55:23;;;;;;;34.50;4.28;;;30.40;19.10;;;;;;4974723;28;20239;-60
2022/04/09 02:57:50;;;;;;;37.95;4.45;;;30.30;19.40;;;;;;4974582;28;20072;-60
2022/04/09 03:00:17;;;;;;;30.33;4.60;;;30.20;19.00;;;;;;4958681;28;20445;-62
2022/04/09 03:02:44;;;;;;;40.08;4.75;;;30.00;18.90;;;;;;4974881;28;20072;-62
2022/04/09 03:05:13;;;;;;;33.20;4.15;;;29.90;19.00;;;;;;4974145;28;20119;-61
2022/04/09 03:07:39;;;;;;;48.97;4.75;;;29.80;19.60;;;;;;4990382;28;20524;-65
2022/04/09 03:10:06;;;;;;;27.50;4.30;;;29.70;20.10;;;;;;4989816;28;20218;-62
2022/04/09 03:12:33;;;;;;;36.17;4.55;;;29.60;18.70;;;;;;4992026;28;20083;-66
2022/04/09 03:14:59;;;;;;;32.13;5.65;;;29.50;19.10;;;;;;4991076;28;20094;-63
2022/04/09 03:17:25;;;;;;;39.47;7.32;;;29.40;19.60;;;;;;4990985;28;20069;-62
2022/04/09 03:19:52;;;;;;;34.22;5.90;;;29.30;19.60;;;;;;4991356;28;20173;-61
2022/04/09 03:22:18;;;;;;;38.35;7.03;;;29.20;19.40;;;;;;4991706;28;20071;-62
2022/04/09 03:24:45;;;;;;;41.33;7.97;;;29.10;19.60;;;;;;4990260;28;20170;-64
2022/04/09 03:27:11;;;;;;;43.22;7.20;;;29.00;19.50;;;;;;4959858;28;20109;-62
2022/04/09 03:29:38;;;;;;;42.13;7.07;;;28.90;19.90;;;;;;4975291;28;20521;-64
2022/04/09 03:32:05;;;;;;;41.17;7.55;;;28.90;20.50;;;;;;4990953;28;20134;-63
2022/04/09 03:34:33;;;;;;;31.65;6.57;;;28.70;20.00;;;;;;4989620;28;20071;-61
2022/04/09 03:36:59;;;;;;;73.45;8.32;;;28.60;20.20;;;;;;4972609;28;20079;-64
2022/04/09 03:39:26;;;;;;;60.72;8.00;;;28.60;21.00;;;;;;4972065;28;20064;-65
2022/04/09 03:41:52;;;;;;;46.28;8.20;;;28.50;22.10;;;;;;4974206;28;20201;-60
2022/04/09 03:44:18;;;;;;;44.78;7.82;;;28.40;21.00;;;;;;4991027;28;20826;-61
2022/04/09 03:46:45;;;;;;;54.25;9.27;;;28.40;21.50;;;;;;4976756;28;20069;-65
2022/04/09 03:49:11;;;;;;;72.70;13.27;;;28.30;21.60;;;;;;4990274;28;20073;-62
2022/04/09 03:51:38;;;;;;;62.35;16.52;;;28.30;21.20;;;;;;4973740;28;20084;-67
2022/04/09 03:54:04;;;;;;;74.75;18.00;;;28.20;20.80;;;;;;4988363;28;20082;-62
2022/04/09 03:56:30;;;;;;;80.93;14.60;;;28.10;20.60;;;;;;4972666;28;20068;-61
2022/04/09 03:58:57;;;;;;;98.35;14.10;;;28.00;20.80;;;;;;4989031;28;20073;-62
2022/04/09 04:01:24;;;;;;;79.22;13.65;;;27.90;20.80;;;;;;4972478;28;20529;-60
2022/04/09 04:03:51;;;;;;;72.18;12.80;;;27.90;21.10;;;;;;4973264;28;20082;-59
2022/04/09 04:06:18;;;;;;;84.97;14.45;;;27.90;21.50;;;;;;4991603;28;20928;-62
2022/04/09 04:08:44;;;;;;;70.80;13.15;;;27.80;21.50;;;;;;4988008;28;20100;-62
2022/04/09 04:11:11;;;;;;;77.32;16.45;;;27.70;21.30;;;;;;4988456;28;20132;-61
2022/04/09 04:13:38;;;;;;;98.50;15.88;;;27.60;21.30;;;;;;4991423;28;20090;-60
2022/04/09 04:16:05;;;;;;;89.55;15.57;;;27.50;21.30;;;;;;4989870;28;20073;-62
2022/04/09 04:18:32;;;;;;;99.25;14.57;;;27.50;21.70;;;;;;4989318;28;20104;-63
2022/04/09 04:20:58;;;;;;;96.03;14.55;;;27.50;22.40;;;;;;4987261;28;20108;-65
2022/04/09 04:23:25;;;;;;;87.00;13.57;;;27.40;22.40;;;;;;4989101;28;20128;-65
2022/04/09 04:25:51;;;;;;;87.13;14.32;;;27.40;22.10;;;;;;4974009;28;20537;-62
2022/04/09 04:28:17;;;;;;;89.50;14.82;;;27.40;21.90;;;;;;4989605;28;20100;-65
2022/04/09 04:30:44;;;;;;;92.53;15.48;;;27.30;22.00;;;;;;4990389;28;20085;-64
2022/04/09 04:33:10;;;;;;;88.72;14.90;;;27.30;22.30;;;;;;4989241;28;20163;-64
2022/04/09 04:35:37;;;;;;;90.68;15.00;;;27.20;22.50;;;;;;4989532;28;20092;-62
2022/04/09 04:38:03;;;;;;;93.93;15.52;;;27.10;22.70;;;;;;4972626;28;20072;-61
2022/04/09 04:40:29;;;;;;;99.35;16.58;;;27.10;23.10;;;;;;4973169;28;20085;-65
2022/04/09 04:42:56;;;;;;;106.25;18.15;;;27.10;23.20;;;;;;4972931;28;20447;-62
2022/04/09 04:45:22;;;;;;;100.38;17.13;;;27.00;23.00;;;;;;4972073;28;20073;-64
2022/04/09 04:47:49;;;;;;;130.13;18.92;;;26.90;22.80;;;;;;4972495;28;20090;-61
2022/04/09 04:50:18;;;;;;;112.65;18.13;;;26.90;23.00;;;;;;4973023;28;20078;-65
2022/04/09 04:52:45;;;;;;;120.68;19.35;;;26.80;23.30;;;;;;4988138;28;20088;-64
2022/04/09 04:55:12;;;;;;;115.65;17.35;;;26.70;23.40;;;;;;4971354;28;20093;-64
2022/04/09 04:57:52;;;;;;;143.98;19.20;;;26.70;23.20;;;;;;4990705;28;20531;-63
2022/04/09 05:00:22;;;;;;;120.65;20.40;;;26.70;22.90;;;;;;4972196;28;20077;-60
2022/04/09 05:02:49;;;;;;;96.65;18.75;;;26.60;22.90;;;;;;4971634;28;20449;-65
2022/04/09 05:05:15;;;;;;;124.20;20.25;;;26.50;22.60;;;;;;4972582;28;20121;-62
2022/04/09 05:07:44;;;;;;;118.85;20.45;;;26.50;22.60;;;;;;4972232;28;20124;-61
2022/04/09 05:10:16;;;;;;;92.85;18.45;;;26.50;22.60;;;;;;4969998;28;20121;-61
2022/04/09 05:12:42;;;;;;;117.40;20.30;;;26.40;22.50;;;;;;4988239;28;20097;-63
2022/04/09 05:15:12;;;;;;;100.43;18.65;;;26.30;22.30;;;;;;4989535;28;20081;-65
2022/04/09 05:17:39;;;;;;;104.25;18.95;;;26.30;22.60;;;;;;4988862;28;20172;-62
2022/04/09 05:20:07;;;;;;;105.05;19.90;;;26.30;22.80;;;;;;4972916;28;20441;-63
2022/04/09 05:22:36;;;;;;;107.63;20.13;;;26.20;22.80;;;;;;4987405;28;20176;-62
2022/04/09 05:25:04;;;;;;;104.25;20.77;;;26.10;22.90;;;;;;4987920;28;20069;-59
2022/04/09 05:27:31;;;;;;;94.63;19.02;;;26.10;23.20;;;;;;4971760;28;20079;-62
2022/04/09 05:29:57;;;;;;;98.97;19.30;;;26.10;23.20;;;;;;4971623;28;20073;-61
2022/04/09 05:32:23;;;;;;;100.97;19.83;;;26.10;23.10;;;;;;4989755;28;20139;-61
2022/04/09 05:34:50;;;;;;;122.43;21.48;;;26.00;23.20;;;;;;4971722;28;20077;-63
2022/04/09 05:37:17;;;;;;;118.43;21.83;;;26.00;23.70;;;;;;4987453;28;20105;-62
2022/04/09 05:39:43;;;;;;;110.95;22.45;;;26.00;24.10;;;;;;4970376;28;20081;-61
2022/04/09 05:42:11;;;;;;;118.47;21.55;;;26.00;23.70;;;;;;4988183;28;20082;-62
2022/04/09 05:44:37;;;;;;;139.75;21.58;;;25.90;23.70;;;;;;4987297;28;20172;-62
2022/04/09 05:47:04;;;;;;;179.00;24.63;;;25.80;23.80;;;;;;4986883;28;20084;-63
2022/04/09 05:49:31;;;;;;;137.52;22.20;;;25.80;24.10;;;;;;4986747;28;20097;-61
2022/04/09 05:51:57;;;;;;;171.60;25.60;;;25.80;24.10;;;;;;4989516;28;20838;-63
2022/04/09 05:54:24;;;;;;;1999.90;275.83;;;25.70;24.60;;;;;;4975127;28;20097;-62
2022/04/09 05:56:51;;;;;;;624.90;59.60;;;25.70;24.50;;;;;;4991417;28;20084;-66
2022/04/09 05:59:18;;;;;;;318.95;37.53;;;25.50;24.20;;;;;;4974319;28;20078;-62
2022/04/09 06:01:44;;;;;;;185.60;30.80;;;25.50;24.10;;;;;;4992443;28;20461;-66
2022/04/09 06:04:11;;;;;;;151.02;30.23;;;25.50;24.10;;;;;;4990749;28;20441;-63
2022/04/09 06:06:38;;;;;;;144.32;26.65;;;25.40;23.90;;;;;;4992268;28;20145;-66
2022/04/09 06:09:04;;;;;;;184.60;30.83;;;25.40;24.00;;;;;;4990778;28;20117;-64
2022/04/09 06:11:31;;;;;;;128.98;26.85;;;25.30;24.30;;;;;;4974522;28;20097;-67
2022/04/09 06:13:57;;;;;;;142.73;26.85;;;25.20;24.40;;;;;;4990084;28;20077;-63
2022/04/09 06:16:25;;;;;;;136.38;26.88;;;25.30;24.80;;;;;;4957146;28;20110;-61
2022/04/09 06:18:51;;;;;;;115.90;24.45;;;25.30;24.90;;;;;;4990339;28;20081;-62
2022/04/09 06:21:18;;;;;;;106.18;24.20;;;25.30;25.00;;;;;;4975335;28;20073;-62
2022/04/09 06:23:44;;;;;;;111.80;24.98;;;25.10;24.80;;;;;;4987971;28;20181;-61
2022/04/09 06:26:10;;;;;;;117.40;25.92;;;25.00;24.80;;;;;;4973566;28;20074;-62
2022/04/09 06:28:37;;;;;;;97.88;24.08;;;25.10;25.10;;;;;;4974040;28;20074;-61
2022/04/09 06:31:03;;;;;;;115.22;25.05;;;25.00;25.10;;;;;;4991347;28;20437;-62
2022/04/09 06:33:29;;;;;;;104.90;25.27;;;24.90;25.30;;;;;;4974171;28;20165;-61
2022/04/09 06:35:56;;;;;;;112.72;27.23;;;24.80;25.40;;;;;;4990935;28;20093;-60
2022/04/09 06:38:22;;;;;;;92.75;26.38;;;24.80;25.50;;;;;;4974314;28;20070;-58
2022/04/09 06:40:49;;;;;;;110.13;26.13;;;24.80;25.70;;;;;;4974159;28;20085;-61
2022/04/09 06:43:15;;;;;;;99.18;25.38;;;24.80;25.80;;;;;;4990581;28;20477;-62
2022/04/09 06:45:41;;;;;;;126.45;27.65;;;24.80;25.90;;;;;;4974384;28;20076;-63
2022/04/09 06:48:08;;;;;;;112.15;27.30;;;24.80;26.20;;;;;;4989912;28;20511;-64
2022/04/09 06:50:34;;;;;;;94.25;26.30;;;24.80;25.90;;;;;;4974196;28;20168;-62
2022/04/09 06:53:01;;;;;;;104.00;26.63;;;24.80;26.00;;;;;;4989458;28;20475;-62
2022/04/09 06:55:27;;;;;;;136.60;30.63;;;24.70;26.70;;;;;;4989594;28;20089;-61
2022/04/09 06:58:01;;;;;;;137.35;29.25;;;24.70;26.90;;;;;;4991460;28;20530;-62
2022/04/09 07:00:28;;;;;;;119.60;30.80;;;24.70;27.00;;;;;;4973320;28;20077;-65
2022/04/09 07:02:54;;;;;;;127.50;30.48;;;24.60;27.00;;;;;;4974385;28;20081;-64
2022/04/09 07:05:21;;;;;;;122.93;29.90;;;24.60;27.10;;;;;;4961964;28;20110;-60
2022/04/09 07:07:48;;;;;;;134.85;31.35;;;24.60;26.90;;;;;;4953718;28;20117;-60
2022/04/09 07:10:15;;;;;;;123.90;31.05;;;24.50;26.70;;;;;;4952865;28;20094;-62
2022/04/09 07:12:42;;;;;;;123.72;29.80;;;24.40;26.60;;;;;;4971548;28;20090;-63
2022/04/09 07:15:10;;;;;;;101.50;28.92;;;24.40;26.90;;;;;;4971240;28;20086;-62
2022/04/09 07:17:41;;;;;;;109.05;29.15;;;24.30;26.70;;;;;;4971368;28;20078;-58
2022/04/09 07:20:09;;;;;;;114.85;29.15;;;24.30;27.00;;;;;;4955026;28;20078;-62
2022/04/09 07:22:37;;;;;;;100.45;28.80;;;24.20;27.00;;;;;;4954250;28;20148;-60
2022/04/09 07:25:05;;;;;;;107.65;26.77;;;24.20;27.30;;;;;;4953464;28;20078;-61
2022/04/09 07:27:42;;;;;;;105.00;27.95;;;24.10;26.80;;;;;;4970089;28;20082;-62
2022/04/09 07:30:12;;;;;;;113.32;29.27;;;24.10;26.80;;;;;;4970210;28;20109;-62
2022/04/09 07:32:39;;;;;;;117.32;27.00;;;24.10;26.90;;;;;;4968417;28;20667;-62
2022/04/09 07:35:07;;;;;;;126.47;30.55;;;24.10;27.00;;;;;;4954062;28;20189;-64
2022/04/09 07:37:39;;;;;;;146.85;31.20;;;24.00;26.80;;;;;;4971595;28;20149;-63
2022/04/09 07:40:06;;;;;;;122.30;31.55;;;24.00;26.80;;;;;;4969877;28;20094;-61
2022/04/09 07:42:33;;;;;;;118.22;28.75;;;24.00;27.00;;;;;;4954255;28;20076;-62
2022/04/09 07:45:00;;;;;;;120.35;26.83;;;24.00;26.60;;;;;;4970312;28;20218;-62
2022/04/09 07:47:26;;;;;;;103.28;25.42;;;24.00;26.50;;;;;;4953379;28;20088;-62
2022/04/09 07:49:53;;;;;;;104.95;26.05;;;24.00;26.60;;;;;;4969887;28;20077;-63
2022/04/09 07:52:19;;;;;;;100.93;24.80;;;23.90;26.40;;;;;;4970637;28;20466;-62
2022/04/09 07:54:45;;;;;;;95.57;23.75;;;23.90;26.20;;;;;;4953272;28;20470;-63
2022/04/09 07:57:12;;;;;;;99.47;22.52;;;23.80;26.50;;;;;;4970303;28;20066;-61
2022/04/09 07:59:38;;;;;;;110.60;24.27;;;23.70;26.50;;;;;;4952388;28;20090;-61
2022/04/09 08:02:05;;;;;;;103.32;23.13;;;23.70;26.80;;;;;;4969396;28;20125;-59
2022/04/09 08:04:31;;;;;;;98.82;23.42;;;23.70;26.70;;;;;;4954855;28;20141;-61
2022/04/09 08:06:58;;;;;;;105.05;23.13;;;23.60;26.70;;;;;;4972046;28;20156;-61
2022/04/09 08:09:24;;;;;;;101.60;24.70;;;23.60;26.80;;;;;;4972425;28;20070;-61
2022/04/09 08:11:52;;;;;;;92.28;23.15;;;23.50;26.60;;;;;;4989845;28;20176;-62
2022/04/09 08:14:18;;;;;;;103.57;25.15;;;23.60;26.70;;;;;;4972314;28;20113;-62
2022/04/09 08:16:45;;;;;;;86.97;24.98;;;23.40;26.90;;;;;;4989525;28;20074;-61
2022/04/09 08:19:12;;;;;;;97.63;23.45;;;23.40;27.00;;;;;;4972056;28;20150;-63
2022/04/09 08:21:38;;;;;;;84.07;24.30;;;23.40;27.10;;;;;;4971903;28;20077;-64
2022/04/09 08:24:05;;;;;;;77.07;22.77;;;23.40;27.30;;;;;;4972351;28;20117;-63
2022/04/09 08:26:31;;;;;;;100.25;23.52;;;23.40;27.40;;;;;;4985125;28;20453;-61
2022/04/09 08:28:58;;;;;;;96.20;23.10;;;23.30;27.30;;;;;;4971580;28;20132;-60
2022/04/09 08:31:24;;;;;;;102.15;24.27;;;23.30;27.40;;;;;;4972518;28;20173;-62
2022/04/09 08:33:51;;;;;;;121.00;25.30;;;23.30;27.30;;;;;;4971463;28;20113;-62
2022/04/09 08:36:17;;;;;;;102.38;23.58;;;23.20;27.30;;;;;;4972346;28;20176;-64
2022/04/09 08:38:44;;;;;;;84.63;23.23;;;23.10;27.40;;;;;;4972389;28;20457;-63
2022/04/09 08:41:17;;;;;;;96.78;22.30;;;23.10;27.50;;;;;;4972109;28;20074;-62
2022/04/09 08:43:43;;;;;;;103.57;23.73;;;23.10;27.60;;;;;;4972083;28;20100;-62
2022/04/09 08:46:09;;;;;;;89.43;22.85;;;23.00;27.60;;;;;;4989188;28;20561;-62
2022/04/09 08:48:38;;;;;;;120.78;23.20;;;23.00;27.90;;;;;;4971845;28;20074;-62
2022/04/09 08:51:04;;;;;;;100.90;22.33;;;23.00;28.00;;;;;;4973064;28;20074;-60
2022/04/09 08:53:30;;;;;;;102.75;24.00;;;22.90;28.20;;;;;;4971652;28;20436;-62
2022/04/09 08:55:57;;;;;;;85.70;22.55;;;22.80;28.20;;;;;;4973358;28;20199;-62
2022/04/09 08:58:23;;;;;;;110.90;24.00;;;22.80;28.40;;;;;;4972065;28;20078;-61
2022/04/09 09:00:50;;;;;;;107.90;24.15;;;22.80;28.40;;;;;;4955467;28;20070;-63
2022/04/09 09:03:16;;;;;;;93.55;23.65;;;22.70;28.60;;;;;;4988867;28;20077;-61
2022/04/09 09:05:45;;;;;;;100.40;23.27;;;22.80;28.60;;;;;;4972099;28;20106;-63
2022/04/09 09:08:12;;;;;;;92.60;22.70;;;22.70;28.60;;;;;;4989177;28;20073;-62
2022/04/09 09:10:40;;;;;;;90.30;22.38;;;22.70;28.80;;;;;;4988982;28;20077;-61
2022/04/09 09:13:09;;;;;;;80.50;22.00;;;22.70;29.20;;;;;;4971997;28;20089;-62
2022/04/09 09:15:46;;;;;;;89.53;22.48;;;22.70;29.30;;;;;;4970794;28;20077;-61
2022/04/09 09:18:18;;;;;;;;;;;22.60;29.30;;;;;;4972346;28;20073;-61
2022/04/09 09:20:56;;;;;;;99.57;23.02;;;22.50;29.10;;;;;;4988321;28;19989;-63
2022/04/09 09:23:34;;;;;;;103.70;21.33;;;22.50;29.10;;;;;;4971063;28;20553;-60
2022/04/09 09:26:03;;;;;;;78.82;20.80;;;22.50;29.60;;;;;;4971038;28;20081;-61
2022/04/09 09:28:32;;;;;;;101.57;21.67;;;22.40;29.60;;;;;;4969936;28;20460;-63
2022/04/09 09:31:00;;;;;;;84.65;22.05;;;22.40;30.00;;;;;;4970539;28;20096;-61
2022/04/09 09:33:27;;;;;;;85.82;22.83;;;22.30;29.80;;;;;;4971475;28;20081;-62
2022/04/09 09:35:55;;;;;;;69.03;20.33;;;22.30;30.40;;;;;;4970985;28;20077;-61
2022/04/09 09:38:29;;;;;;;79.05;21.67;;;22.30;29.80;;;;;;4970608;28;20148;-62
2022/04/09 09:40:57;;;;;;;93.22;20.55;;;22.20;30.00;;;;;;4971256;28;20544;-62
2022/04/09 09:43:26;;;;;;;92.90;20.25;;;22.20;29.50;;;;;;4971044;28;20132;-62
2022/04/09 09:45:54;;;;;;;99.13;20.77;;;22.20;29.90;;;;;;4971603;28;20078;-64
2022/04/09 09:48:29;;;;;;;97.22;22.02;;;22.10;29.80;;;;;;4970953;28;20082;-63
2022/04/09 09:50:57;;;;;;;104.10;21.67;;;22.10;30.10;;;;;;4970090;28;20087;-65
2022/04/09 09:53:42;;;;;;;83.75;21.83;;;22.00;30.30;;;;;;4969763;28;20097;-63
2022/04/09 09:56:08;;;;;;;96.10;21.40;;;22.00;30.60;;;;;;4972066;28;20085;-68
2022/04/09 09:58:37;;;;;;;106.03;22.20;;;22.00;31.00;;;;;;4987731;28;20537;-64
2022/04/09 10:01:03;;;;;;;88.35;20.85;;;22.00;31.10;;;;;;4970736;28;20105;-67
2022/04/09 10:03:30;;;;;;;87.50;20.75;;;21.90;31.80;;;;;;4987771;28;20128;-62
2022/04/09 10:05:56;;;;;;;81.05;20.55;;;21.90;31.70;;;;;;4980390;28;20105;-59
2022/04/09 10:08:22;;;;;;;105.13;21.15;;;21.80;31.70;;;;;;4987625;28;20091;-62
2022/04/09 10:10:50;;;;;;;90.85;22.55;;;21.80;31.70;;;;;;4971027;28;20074;-62
2022/04/09 10:13:25;;;;;;;92.40;21.17;;;21.80;31.70;;;;;;4987546;28;20114;-62
2022/04/09 10:15:52;;;;;;;102.50;21.90;;;21.80;32.00;;;;;;4987413;28;20104;-62
2022/04/09 10:18:23;;;;;;;112.72;22.98;;;21.70;32.10;;;;;;4970974;28;20070;-64
2022/04/09 10:20:59;;;;;;;84.47;22.33;;;21.60;32.40;;;;;;4987543;28;20220;-64
2022/04/09 10:23:29;;;;;;;106.00;22.60;;;21.70;32.60;;;;;;4988954;28;20076;-65
2022/04/09 10:25:56;;;;;;;106.55;23.85;;;21.60;32.80;;;;;;4971986;28;20331;-60
2022/04/09 10:28:34;;;;;;;97.88;23.85;;;21.50;32.90;;;;;;4985680;28;20074;-66
2022/04/09 10:31:01;;;;;;;113.47;22.80;;;21.50;32.90;;;;;;4986688;28;20078;-67
2022/04/09 10:33:33;;;;;;;112.72;22.58;;;21.50;33.20;;;;;;4987065;28;20212;-63
2022/04/09 10:36:02;;;;;;;116.75;23.50;;;21.40;32.70;;;;;;4988133;28;20084;-64
2022/04/09 10:38:29;;;;;;;119.55;24.83;;;21.40;33.10;;;;;;4989990;28;20535;-63
2022/04/09 10:40:55;;;;;;;93.03;23.77;;;21.40;33.40;;;;;;4990360;28;20078;-63
2022/04/09 10:43:24;;;;;;;104.60;22.88;;;21.40;33.70;;;;;;4990474;28;20426;-64
2022/04/09 10:46:11;;;;;;;110.30;22.30;;;21.30;34.40;;;;;;4990412;28;20422;-63
2022/04/09 10:48:42;;;;;;;108.97;23.88;;;21.30;34.40;;;;;;4990565;28;20076;-62
2022/04/09 10:51:11;;;;;;;106.75;23.52;;;21.20;33.90;;;;;;4990749;28;20082;-62
2022/04/09 10:53:42;;;;;;;111.05;24.17;;;21.30;34.10;;;;;;4990844;28;20070;-62
2022/04/09 10:56:29;;;;;;;116.18;23.92;;;21.30;33.90;;;;;;4989989;28;20096;-62
2022/04/09 10:59:13;;;;;;;117.40;24.52;;;21.30;33.80;;;;;;4990419;28;20078;-63
2022/04/09 11:01:46;;;;;;;122.22;25.45;;;21.20;33.90;;;;;;4989028;28;20492;-64
2022/04/09 11:04:37;;;;;;;116.10;25.88;;;21.20;34.00;;;;;;4989375;28;20074;-63
2022/04/09 11:07:16;;;;;;;117.93;25.65;;;21.20;34.20;;;;;;4988034;28;20618;-62
2022/04/09 11:09:51;;;;;;;123.30;26.95;;;21.20;34.10;;;;;;4989323;28;20184;-66
2022/04/09 11:12:20;;;;;;;126.63;27.55;;;21.20;33.90;;;;;;4989104;28;20576;-63
2022/04/09 11:14:59;;;;;;;108.30;27.08;;;21.10;34.30;;;;;;4989695;28;20180;-64
2022/04/09 11:17:27;;;;;;;110.25;28.25;;;21.00;34.40;;;;;;4989775;28;20062;-62
2022/04/09 11:19:55;;;;;;;142.70;30.90;;;21.00;33.80;;;;;;4989993;28;20553;-61
2022/04/09 11:22:22;;;;;;;140.68;32.28;;;21.00;33.20;;;;;;4991748;28;20077;-63
2022/04/09 11:24:48;;;;;;;128.80;31.27;;;20.90;32.80;;;;;;4990516;28;20427;-63
2022/04/09 11:27:14;;;;;;;115.00;33.88;;;20.90;33.20;;;;;;4989655;28;20180;-62
2022/04/09 11:29:43;;;;;;;172.27;46.60;;;20.90;33.20;;;;;;4988556;28;20074;-66
2022/04/09 11:32:20;;;;;;;168.32;48.08;;;20.90;33.00;;;;;;4987008;28;20576;-64
2022/04/09 11:34:59;;;;;;;;;;;20.90;33.10;;;;;;5021961;28;20156;-64
2022/04/09 11:37:30;;;;;;;166.15;48.30;;;20.90;32.60;;;;;;4989242;28;19965;-61
2022/04/09 11:39:58;;;;;;;170.63;46.53;;;20.90;32.90;;;;;;4990354;28;20077;-61
2022/04/09 11:42:25;;;;;;;167.65;44.03;;;20.80;32.30;;;;;;4989866;28;20128;-62
2022/04/09 11:44:51;;;;;;;164.88;43.15;;;20.90;33.30;;;;;;4989657;28;20090;-62
2022/04/09 11:47:23;;;;;;;144.15;36.25;;;20.90;33.30;;;;;;4988918;28;20184;-61
2022/04/09 11:49:52;;;;;;;131.93;38.22;;;20.90;33.30;;;;;;4990236;28;20073;-61
2022/04/09 11:52:30;;;;;;;160.10;38.63;;;20.80;33.20;;;;;;4990703;28;20120;-61
2022/04/09 11:55:00;;;;;;;167.07;45.67;;;20.80;33.30;;;;;;4988858;28;20100;-62
2022/04/09 11:57:26;;;;;;;170.15;44.40;;;20.80;33.30;;;;;;4988816;28;20074;-62
2022/04/09 11:59:54;;;;;;;144.05;40.65;;;20.70;33.60;;;;;;4988179;28;20113;-62
2022/04/09 12:02:26;;;;;;;162.40;43.92;;;20.70;33.40;;;;;;4989062;28;20125;-61
2022/04/09 12:04:54;;;;;;;180.40;43.17;;;20.60;33.10;;;;;;4988748;28;20129;-62
2022/04/09 12:07:22;;;;;;;174.63;44.75;;;20.60;33.20;;;;;;4956521;28;20097;-63
2022/04/09 12:09:49;;;;;;;161.95;43.63;;;20.60;33.80;;;;;;4987033;28;20081;-64
2022/04/09 12:12:19;;;;;;;149.13;40.20;;;20.50;33.90;;;;;;4989540;28;20192;-63
2022/04/09 12:14:56;;;;;;;150.05;41.50;;;20.50;33.60;;;;;;4988824;28;20084;-62
2022/04/09 12:17:32;;;;;;;162.95;40.03;;;20.50;33.60;;;;;;4989262;28;20097;-62
2022/04/09 12:19:59;;;;;;;144.07;39.10;;;20.50;34.50;;;;;;4971736;28;20165;-61
2022/04/09 12:22:26;;;;;;;142.35;36.67;;;20.50;34.80;;;;;;4988265;28;20311;-61
2022/04/09 12:24:58;;;;;;;141.23;38.40;;;20.50;34.30;;;;;;4987711;28;20531;-61
2022/04/09 12:27:45;;;;;;;145.75;36.33;;;20.50;33.80;;;;;;4989692;28;20140;-63
2022/04/09 12:30:12;;;;;;;131.40;34.97;;;20.50;34.00;;;;;;4971572;28;20193;-62
2022/04/09 12:32:41;;;;;;;130.48;31.88;;;20.50;34.20;;;;;;4970882;28;20093;-63